AirNav   Duncan Aviation - Near you to keep you flying
 
 1275 users online  

4CA3 Camp Parks Heliport
Pleasanton, California, USA

GOING TO PLEASANTON?


FAA INFORMATION EFFECTIVE 08 SEPTEMBER 2022

Location

FAA Identifier: 4CA3
Lat/Long: 37-42-29.7460N 121-53-33.8470W
37-42.495767N 121-53.564117W
37.7082628,-121.8927353
(estimated)
Elevation: 361 ft. / 110 m (estimated)
Variation: 16E (1985)
From city: 1 mile N of PLEASANTON, CA
Time zone: UTC -7 (UTC -8 during Standard Time)
Zip code: 94568

Heliport Operations

Heliport use: Private use. Permission required prior to landing
Control tower: no
ARTCC: OAKLAND CENTER
FSS: OAKLAND FLIGHT SERVICE STATION
Attendance: UNATNDD
PPR BASE OPS 925-803-5257/5628/5617.
Segmented circle: no

Heliport Communications

WX ASOS at LVK (4 nm E): PHONE 925-606-5412
WX ASOS at HWD (11 nm W): PHONE 510-786-3052
WX AWOS-3 at C83 (15 nm NE): 123.775 (925-634-0906)
WX ASOS at OAK (16 nm W): PHONE 510-214-1776
WX ASOS at CCR (19 nm NW): PHONE 925-689-2077
WX AWOS-3PT at NUQ (19 nm SW): 124.175 (650-386-0655)

Nearby radio navigation aids

VOR radial/distance  VOR name  Freq  Var
OAKr077/15.7OAKLAND VOR/DME116.8017E
SJCr351/20.2SAN JOSE VOR/DME114.1016E
CCRr143/21.5CONCORD VOR/DME117.0017E
SFOr060/23.5SAN FRANCISCO VOR/DME115.8017E
OSIr027/26.5WOODSIDE VOR/DME113.9017E
SAUr089/31.2SAUSALITO VOR/DME116.2017E
SGDr124/36.3SCAGGS ISLAND VORTAC112.1017E

Heliport Services

Runway Information

Helipad H1

Dimensions: 2200 x 400 ft. / 671 x 122 m
Surface: asphalt
Latitude: 37-42.495767N
Longitude: 121-53.564117W
Elevation: 361.0 ft.
Traffic pattern: leftleft

Heliport Ownership and Management from official FAA records

Ownership: U.S. Army
Owner: U S ARMY
U S ARMY GARRISON/CAMP PARKS
PLEASANTON, CA 94566
Manager: AUTOVON 586-4238 MANNED 24 HRS.

Additional Remarks

FOR CD CTC NORCAL APCH AT 916-361-0516.
E137-1 APCH/DEP NORTH THRU EAST. MAINT HIGHEST PRACTICAL ALT DURING APCH FOR NOISE ABATEMENT. MAKE TFC PAT OVER CAMP PARKS. AVOID DUBLIN/SAN RAMON.
E137-2 CTC FIRE DEPT 15 NM OUT ON 41.50 FM. CAUTION-SMALL ARMS RANGE 1 NM NORTH OF LNDG AREA.

Instrument Procedures

There are no published instrument procedures at 4CA3.

Some nearby airports with instrument procedures:

KLVK - Livermore Municipal Airport (4 nm E)
KHWD - Hayward Executive Airport (11 nm W)
C83 - Byron Airport (15 nm NE)
KOAK - Metro Oakland International Airport (16 nm W)
KPAO - Palo Alto Airport (18 nm SW)
KCCR - Buchanan Field Airport (19 nm NW)
KNUQ - Moffett Federal Airfield (19 nm SW)
 
Loc | Ops | Rwys | IFR | FBO | Links
Com | Nav | Svcs | Stats | Notes
Area around 4CA3 (Camp Parks Heliport)
 
Road maps at: MapQuest Bing Google
 
Aerial photo
No photo
 
Sectional chart

 
Airport distance calculator
Flying to Camp Parks Heliport? Find the distance to fly.

From to 4CA3

Sunrise and sunset
Times for 03-Oct-2022
 Local
(UTC-7)
 Zulu
(UTC)
Morning civil twilight06:4013:40
Sunrise07:0614:06
Sunset18:4701:47
Evening civil twilight19:1302:13

Current date and time
Zulu (UTC)  04-Oct-2022 01:40:11
Local (UTC-7)  03-Oct-2022 18:40:11
 
METAR
KLVK 
4nm E 
040053Z 28012KT 10SM CLR 22/12 A2998 RMK AO2 SLP148 T02170122
KHWD 
11nm W 
040054Z 29011KT 10SM CLR 19/13 A3001 RMK AO2 SLP172 T01890133
KC83 
15nm NE 
040115Z AUTO 23013KT 10SM CLR 26/12 A2994 RMK AO2
KOAK 
15nm W 
040053Z 26010KT 10SM CLR 19/13 A3001 RMK AO2 SLP163 T01940128
KPAO 
18nm SW 
040047Z 33014G20KT 10SM SKC 20/13 A3000
KNUQ 
19nm S 
040115Z AUTO 34012KT 9SM CLR 19/14 A3000 RMK AO2
KCCR 
19nm NW 
040053Z 27011KT 10SM CLR 24/12 A2997 RMK AO2 SLP136 T02390117
TAF
KLVK 
4nm E 
031732Z 0318/0418 28012KT P6SM SKC FM040400 VRB04KT P6SM FEW015 FM041300 00000KT 6SM BR SCT012
KOAK 
15nm W 
031732Z 0318/0424 28007KT P6SM SKC FM032200 28015KT P6SM SKC FM040700 27005KT 6SM BR BKN008 FM041800 27009KT P6SM SKC
NOTAMs
Click for the latest NOTAMs
NOTAMs are issued by the DoD/FAA and will open in a separate window not controlled by AirNav.

 

 
 

Would you like to see your business listed on this page?

 If your business provides an interesting product or service to pilots, flight crews, aircraft, or users of the Camp Parks Heliport, you should consider listing it here.  To start the listing process, click on the button below
 
Add a business
 

Other Pages about Camp Parks Heliport

Update a link
 
Copyright © AirNav, LLC. All rights reserved. Privacy Policy  Contact